createdAt,value
2018-09-05T00:02:50.994Z,20.77
2018-09-05T00:05:54.168Z,20.74
2018-09-05T00:08:57.617Z,20.74
2018-09-05T00:12:00.914Z,20.71
2018-09-05T00:15:04.187Z,20.63
2018-09-05T00:18:07.385Z,20.64
2018-09-05T00:21:10.675Z,20.60
2018-09-05T00:24:13.999Z,20.57
2018-09-05T00:27:18.014Z,20.49
2018-09-05T00:30:21.274Z,20.38
2018-09-05T00:33:24.605Z,20.36
2018-09-05T00:36:27.884Z,20.30
2018-09-05T00:39:31.185Z,20.26
2018-09-05T00:42:34.495Z,20.26
2018-09-05T00:45:37.759Z,20.19
2018-09-05T00:48:41.058Z,20.13
2018-09-05T00:51:44.368Z,20.05
2018-09-05T00:54:49.820Z,20.03
2018-09-05T00:57:53.143Z,20.04
2018-09-05T01:00:56.414Z,19.98
2018-09-05T01:03:59.715Z,19.96
2018-09-05T01:07:18.888Z,19.99
2018-09-05T01:10:22.199Z,20.01
2018-09-05T01:13:25.483Z,20.08
2018-09-05T01:16:28.770Z,20.08
2018-09-05T01:19:32.080Z,20.02
2018-09-05T01:22:35.375Z,19.94
2018-09-05T01:25:38.549Z,19.96
2018-09-05T01:28:41.858Z,19.96
2018-09-05T01:31:45.163Z,19.84
2018-09-05T01:34:49.770Z,19.80
2018-09-05T01:37:53.087Z,19.76
2018-09-05T01:40:56.386Z,19.81
2018-09-05T01:43:59.564Z,19.79
2018-09-05T01:47:02.880Z,19.75
2018-09-05T01:50:06.179Z,19.74
2018-09-05T01:53:09.457Z,19.76
2018-09-05T01:56:12.793Z,19.77
2018-09-05T01:59:16.071Z,19.71
2018-09-05T02:02:20.486Z,19.59
2018-09-05T02:05:23.772Z,19.49
2018-09-05T02:08:27.247Z,19.44
2018-09-05T02:11:30.378Z,19.33
2018-09-05T02:14:33.705Z,19.38
2018-09-05T02:17:36.960Z,19.43
2018-09-05T02:20:40.160Z,19.50
2018-09-05T02:23:43.471Z,19.49
2018-09-05T02:26:46.765Z,19.49
2018-09-05T02:29:51.012Z,19.47
2018-09-05T02:32:54.283Z,19.45
2018-09-05T02:35:57.575Z,19.40
2018-09-05T02:39:01.801Z,19.38
2018-09-05T02:42:05.104Z,19.37
2018-09-05T02:45:08.447Z,19.37
2018-09-05T02:48:12.707Z,19.32
2018-09-05T02:51:15.904Z,19.28
2018-09-05T02:54:20.106Z,19.26
2018-09-05T02:57:23.399Z,19.21
2018-09-05T03:00:26.641Z,19.22
2018-09-05T03:03:30.046Z,19.25
2018-09-05T03:06:33.194Z,19.24
2018-09-05T03:09:36.409Z,19.12
2018-09-05T03:12:40.731Z,18.98
2018-09-05T03:15:44.052Z,18.96
2018-09-05T03:18:47.327Z,18.97
2018-09-05T03:21:50.753Z,18.97
2018-09-05T03:24:53.999Z,18.95
2018-09-05T03:27:57.219Z,18.92
2018-09-05T03:31:14.568Z,18.90
2018-09-05T03:34:18.275Z,18.88
2018-09-05T03:37:21.429Z,18.76
2018-09-05T03:40:26.824Z,18.68
2018-09-05T03:43:30.171Z,18.73
2018-09-05T03:46:33.403Z,18.72
2018-09-05T03:49:36.857Z,18.70
2018-09-05T03:52:39.942Z,18.70
2018-09-05T03:55:43.207Z,18.71
2018-09-05T03:58:46.484Z,18.72
2018-09-05T04:01:50.468Z,18.71
2018-09-05T04:04:53.666Z,18.69
2018-09-05T04:07:57.054Z,18.70
2018-09-05T04:11:00.385Z,18.71
2018-09-05T04:14:03.803Z,18.71
2018-09-05T04:17:07.219Z,18.71
2018-09-05T04:20:10.509Z,18.68
2018-09-05T04:23:13.751Z,18.67
2018-09-05T04:26:18.234Z,18.63
2018-09-05T04:29:22.312Z,18.46
2018-09-05T04:32:26.654Z,18.43
2018-09-05T04:35:29.959Z,18.47
2018-09-05T04:38:33.453Z,18.51
2018-09-05T04:41:36.742Z,18.49
2018-09-05T04:44:40.359Z,18.45
2018-09-05T04:47:43.632Z,18.40
2018-09-05T04:50:46.839Z,18.40
2018-09-05T04:53:51.035Z,18.39
2018-09-05T04:56:54.828Z,18.36
2018-09-05T04:59:58.188Z,18.34
2018-09-05T05:03:01.451Z,18.32
2018-09-05T05:06:04.695Z,18.31
2018-09-05T05:09:16.143Z,18.30
2018-09-05T05:12:20.368Z,18.30
2018-09-05T05:15:23.638Z,18.31
2018-09-05T05:18:27.030Z,18.28
2018-09-05T05:21:31.245Z,18.26
2018-09-05T05:24:34.598Z,18.28
2018-09-05T05:27:37.851Z,18.32
2018-09-05T05:30:41.156Z,18.33
2018-09-05T05:33:44.393Z,18.28
2018-09-05T05:36:47.507Z,18.30
2018-09-05T05:39:51.698Z,18.29
2018-09-05T05:42:54.979Z,18.27
2018-09-05T05:45:58.243Z,18.27
2018-09-05T05:49:01.699Z,18.26
2018-09-05T05:52:04.992Z,18.29
2018-09-05T05:55:08.266Z,18.34
2018-09-05T05:58:11.592Z,18.43
2018-09-05T06:01:14.877Z,18.50
2018-09-05T06:04:18.155Z,18.57
2018-09-05T06:07:22.027Z,18.58
2018-09-05T06:10:26.217Z,18.63
2018-09-05T06:13:29.554Z,18.72
2018-09-05T06:16:32.706Z,18.75
2018-09-05T06:19:36.006Z,18.86
2018-09-05T06:22:39.257Z,18.96
2018-09-05T06:25:42.601Z,19.07
2018-09-05T06:28:45.848Z,19.23
2018-09-05T06:31:50.219Z,19.43
2018-09-05T06:34:53.487Z,19.56
2018-09-05T06:37:56.792Z,19.57
2018-09-05T06:40:59.959Z,19.66
2018-09-05T06:44:03.407Z,19.74
2018-09-05T06:47:06.676Z,19.89
2018-09-05T06:50:09.979Z,19.92
2018-09-05T06:53:13.151Z,19.97
2018-09-05T06:56:16.440Z,20.05
2018-09-05T06:59:20.346Z,20.17
2018-09-05T07:02:23.551Z,20.25
2018-09-05T07:05:26.703Z,20.33
2018-09-05T07:08:29.944Z,20.50
2018-09-05T07:11:33.232Z,20.60
2018-09-05T07:14:36.506Z,20.72
2018-09-05T07:17:39.816Z,20.74
2018-09-05T07:20:42.924Z,20.70
2018-09-05T07:23:46.238Z,20.79
2018-09-05T07:26:50.264Z,20.89
2018-09-05T07:29:53.572Z,20.98
2018-09-05T07:32:56.894Z,21.05
2018-09-05T07:36:00.381Z,21.27
2018-09-05T07:39:04.419Z,21.42
2018-09-05T07:42:07.666Z,21.61
2018-09-05T07:45:10.860Z,21.67
2018-09-05T07:48:14.132Z,21.78
2018-09-05T07:51:17.786Z,21.91
2018-09-05T07:54:22.083Z,21.94
2018-09-05T07:57:25.530Z,21.98
2018-09-05T08:00:28.755Z,21.95
2018-09-05T08:03:31.958Z,21.97
2018-09-05T08:06:35.101Z,21.87
2018-09-05T08:09:38.522Z,21.74
2018-09-05T08:12:41.745Z,21.76
2018-09-05T08:15:45.036Z,21.78
2018-09-05T08:18:48.268Z,21.84
2018-09-05T08:21:52.557Z,22.04
2018-09-05T08:24:55.741Z,22.13
2018-09-05T08:27:58.966Z,22.37
2018-09-05T08:31:02.344Z,22.64
2018-09-05T08:34:05.591Z,22.99
2018-09-05T08:37:09.180Z,23.10
2018-09-05T08:40:12.239Z,23.09
2018-09-05T08:43:15.439Z,23.26
2018-09-05T08:46:19.517Z,23.44
2018-09-05T08:49:22.656Z,23.45
2018-09-05T08:52:25.962Z,23.72
2018-09-05T08:55:29.492Z,23.83
2018-09-05T08:58:32.755Z,23.73
2018-09-05T09:01:36.934Z,23.74
2018-09-05T09:04:40.354Z,23.61
2018-09-05T09:07:43.613Z,23.75
2018-09-05T09:10:47.016Z,24.20
2018-09-05T09:13:51.502Z,24.56
2018-09-05T09:16:54.695Z,24.74
2018-09-05T09:19:58.966Z,24.81
2018-09-05T09:23:02.298Z,24.76
2018-09-05T09:26:05.649Z,24.68
2018-09-05T09:29:08.945Z,24.51
2018-09-05T09:32:12.244Z,24.43
2018-09-05T09:35:15.518Z,24.85
2018-09-05T09:38:19.551Z,25.12
2018-09-05T09:41:22.795Z,25.12
2018-09-05T09:44:25.969Z,24.93
2018-09-05T09:47:29.236Z,24.86
2018-09-05T09:50:32.527Z,25.06
2018-09-05T09:53:35.708Z,25.41
2018-09-05T09:56:38.944Z,25.62
2018-09-05T09:59:42.209Z,25.37
2018-09-05T10:02:51.050Z,25.28
2018-09-05T10:05:59.696Z,25.09
2018-09-05T10:09:08.344Z,25.16
2018-09-05T10:12:16.963Z,25.36
2018-09-05T10:15:25.600Z,26.12
2018-09-05T10:18:30.272Z,26.55
2018-09-05T10:21:33.543Z,26.60
2018-09-05T10:24:36.745Z,26.46
2018-09-05T10:27:40.044Z,26.41
2018-09-05T10:30:43.404Z,26.59
2018-09-05T10:33:46.687Z,26.82
2018-09-05T10:36:50.518Z,26.84
2018-09-05T10:39:53.835Z,26.55
2018-09-05T10:42:57.104Z,26.37
2018-09-05T10:46:01.480Z,26.48
2018-09-05T10:49:04.758Z,26.92
2018-09-05T10:52:09.084Z,26.97
2018-09-05T10:55:12.489Z,27.07
2018-09-05T10:58:15.706Z,27.21
2018-09-05T11:01:20.021Z,27.08
2018-09-05T11:04:23.338Z,27.52
2018-09-05T11:07:26.603Z,27.93
2018-09-05T11:10:29.943Z,27.94
2018-09-05T11:13:33.216Z,28.05
2018-09-05T11:16:36.928Z,28.23
2018-09-05T11:19:40.199Z,28.36
2018-09-05T11:22:46.790Z,28.33
2018-09-05T11:25:50.560Z,28.05
2018-09-05T11:28:53.965Z,27.55
2018-09-05T11:31:57.198Z,27.66
2018-09-05T11:35:00.487Z,27.68
2018-09-05T11:38:03.794Z,27.99
2018-09-05T11:41:07.227Z,28.24
2018-09-05T11:44:10.455Z,28.37
2018-09-05T11:47:13.664Z,28.50
2018-09-05T11:50:16.883Z,28.30
2018-09-05T11:53:20.626Z,28.40
2018-09-05T11:56:23.959Z,28.42
2018-09-05T11:59:27.235Z,28.71
2018-09-05T12:02:30.553Z,28.80
2018-09-05T12:05:33.747Z,28.77
2018-09-05T12:08:37.128Z,29.09
2018-09-05T12:11:40.761Z,29.12
2018-09-05T12:14:44.092Z,29.24
2018-09-05T12:17:47.482Z,29.37
2018-09-05T12:20:51.367Z,28.78
2018-09-05T12:23:54.685Z,29.06
2018-09-05T12:26:57.939Z,29.35
2018-09-05T12:30:01.276Z,29.41
2018-09-05T12:33:04.548Z,29.37
2018-09-05T12:36:07.826Z,29.53
2018-09-05T12:39:13.628Z,29.68
2018-09-05T12:42:16.927Z,29.49
2018-09-05T12:45:20.709Z,29.68
2018-09-05T12:48:24.447Z,29.72
2018-09-05T12:51:27.758Z,29.74
2018-09-05T12:54:30.971Z,29.83
2018-09-05T12:57:34.092Z,29.73
2018-09-05T13:00:37.304Z,29.77
2018-09-05T13:03:40.630Z,29.76
2018-09-05T13:06:43.754Z,29.88
2018-09-05T13:09:47.016Z,29.94
2018-09-05T13:12:51.428Z,30.02
2018-09-05T13:15:54.784Z,29.97
2018-09-05T13:18:57.994Z,29.78
2018-09-05T13:22:01.349Z,29.75
2018-09-05T13:25:04.615Z,29.88
2018-09-05T13:28:07.875Z,29.89
2018-09-05T13:31:11.199Z,29.94
2018-09-05T13:34:14.488Z,29.98
2018-09-05T13:37:17.682Z,30.09
2018-09-05T13:40:21.801Z,30.13
2018-09-05T13:43:25.112Z,30.22
2018-09-05T13:46:28.429Z,30.21
2018-09-05T13:49:31.707Z,30.31
2018-09-05T13:52:35.053Z,30.26
2018-09-05T13:55:38.348Z,30.18
2018-09-05T13:58:41.604Z,30.47
2018-09-05T14:01:45.047Z,30.48
2018-09-05T14:04:48.284Z,30.67
2018-09-05T14:07:52.246Z,30.65
2018-09-05T14:10:55.456Z,30.64
2018-09-05T14:13:58.686Z,30.64
2018-09-05T14:17:02.001Z,30.62
2018-09-05T14:20:05.728Z,30.57
2018-09-05T14:23:09.024Z,30.65
2018-09-05T14:26:12.299Z,30.81
2018-09-05T14:29:15.637Z,31.03
2018-09-05T14:32:18.896Z,31.33
2018-09-05T14:35:22.423Z,31.40
2018-09-05T14:38:25.695Z,31.26
2018-09-05T14:41:29.091Z,31.14
2018-09-05T14:44:32.572Z,31.32
2018-09-05T14:47:35.916Z,31.41
2018-09-05T14:50:39.252Z,31.28
2018-09-05T14:53:42.387Z,31.15
2018-09-05T14:56:47.082Z,31.21
2018-09-05T14:59:50.774Z,31.12
2018-09-05T15:02:54.040Z,31.18
2018-09-05T15:05:57.344Z,31.18
2018-09-05T15:09:00.595Z,31.36
2018-09-05T15:12:04.957Z,31.38
2018-09-05T15:15:08.261Z,31.23
2018-09-05T15:18:11.509Z,31.11
2018-09-05T15:21:14.934Z,30.68
2018-09-05T15:24:18.254Z,30.66
2018-09-05T15:27:22.243Z,30.79
2018-09-05T15:30:25.765Z,31.08
2018-09-05T15:33:29.043Z,31.01
2018-09-05T15:36:32.434Z,31.35
2018-09-05T15:39:35.768Z,31.55
2018-09-05T15:42:39.237Z,31.73
2018-09-05T15:45:42.547Z,31.91
2018-09-05T15:48:45.803Z,31.76
2018-09-05T15:51:53.559Z,31.77
2018-09-05T15:54:56.829Z,31.71
2018-09-05T15:58:00.171Z,31.66
2018-09-05T16:01:03.536Z,31.20
2018-09-05T16:04:07.041Z,30.98
2018-09-05T16:07:10.386Z,30.53
2018-09-05T16:10:13.629Z,30.73
2018-09-05T16:13:16.974Z,30.90
2018-09-05T16:16:20.715Z,30.94
2018-09-05T16:19:24.082Z,30.89
2018-09-05T16:22:27.362Z,30.84
2018-09-05T16:25:30.800Z,30.82
2018-09-05T16:28:34.265Z,30.70
2018-09-05T16:31:37.578Z,30.44
2018-09-05T16:34:40.818Z,30.26
2018-09-05T16:37:44.139Z,30.08
2018-09-05T16:40:47.391Z,29.82
2018-09-05T16:43:51.731Z,29.82
2018-09-05T16:46:54.947Z,29.82
2018-09-05T16:49:58.379Z,29.87
2018-09-05T16:53:01.631Z,29.85
2018-09-05T16:56:04.964Z,29.74
2018-09-05T16:59:08.232Z,29.69
2018-09-05T17:02:11.528Z,29.53
2018-09-05T17:05:14.719Z,29.47
2018-09-05T17:08:18.064Z,29.50
2018-09-05T17:11:22.009Z,29.37
2018-09-05T17:14:25.214Z,29.33
2018-09-05T17:17:28.648Z,29.28
2018-09-05T17:20:31.911Z,29.20
2018-09-05T17:23:35.300Z,29.14
2018-09-05T17:26:38.523Z,29.14
2018-09-05T17:29:41.818Z,29.00
2018-09-05T17:32:44.994Z,28.88
2018-09-05T17:35:48.332Z,28.76
2018-09-05T17:38:52.322Z,28.69
2018-09-05T17:41:55.613Z,28.59
2018-09-05T17:44:58.760Z,28.50
2018-09-05T17:48:02.354Z,28.38
2018-09-05T17:51:05.749Z,28.38
2018-09-05T17:54:09.027Z,28.35
2018-09-05T17:57:12.334Z,28.31
2018-09-05T18:00:15.583Z,28.23
2018-09-05T18:03:18.771Z,28.15
2018-09-05T18:06:22.999Z,28.08
2018-09-05T18:09:26.310Z,27.98
2018-09-05T18:12:29.686Z,27.93
2018-09-05T18:15:32.898Z,27.91
2018-09-05T18:18:36.191Z,27.83
2018-09-05T18:21:39.519Z,27.72
2018-09-05T18:24:42.855Z,27.65
2018-09-05T18:27:46.091Z,27.59
2018-09-05T18:30:50.151Z,27.49
2018-09-05T18:33:53.490Z,27.40
2018-09-05T18:36:56.689Z,27.29
2018-09-05T18:40:00.013Z,27.13
2018-09-05T18:43:03.230Z,26.94
2018-09-05T18:46:06.512Z,26.72
2018-09-05T18:49:09.706Z,26.59
2018-09-05T18:52:12.983Z,26.49
2018-09-05T18:55:16.216Z,26.30
2018-09-05T18:58:19.929Z,26.21
2018-09-05T19:01:23.199Z,26.07
2018-09-05T19:04:26.499Z,25.98
2018-09-05T19:07:29.672Z,25.92
2018-09-05T19:10:34.048Z,25.82
2018-09-05T19:13:37.306Z,25.76
2018-09-05T19:16:41.299Z,25.71
2018-09-05T19:19:44.613Z,25.66
2018-09-05T19:22:47.973Z,25.61
2018-09-05T19:25:51.207Z,25.46
2018-09-05T19:28:54.347Z,25.32
2018-09-05T19:31:57.655Z,25.23
2018-09-05T19:35:01.824Z,25.22
2018-09-05T19:38:05.027Z,25.09
2018-09-05T19:41:08.356Z,25.01
2018-09-05T19:44:12.679Z,24.95
2018-09-05T19:47:16.087Z,24.93
2018-09-05T19:50:19.363Z,24.90
2018-09-05T19:53:22.701Z,24.87
2018-09-05T19:56:26.029Z,24.87
2018-09-05T19:59:29.392Z,24.84
2018-09-05T20:02:32.523Z,24.79
2018-09-05T20:05:35.712Z,24.76
2018-09-05T20:08:39.065Z,24.63
2018-09-05T20:11:43.222Z,24.57
2018-09-05T20:14:46.422Z,24.57
2018-09-05T20:17:49.702Z,24.51
2018-09-05T20:20:52.972Z,24.41
2018-09-05T20:24:04.030Z,24.37
2018-09-05T20:27:08.544Z,24.32
2018-09-05T20:30:13.877Z,24.25
2018-09-05T20:33:17.178Z,24.20
2018-09-05T20:36:20.419Z,24.17
2018-09-05T20:39:23.772Z,24.16
2018-09-05T20:42:27.159Z,24.13
2018-09-05T20:45:30.396Z,24.06
2018-09-05T20:48:33.718Z,23.99
2018-09-05T20:51:36.964Z,24.00
2018-09-05T20:54:40.900Z,24.01
2018-09-05T20:57:44.203Z,24.02
2018-09-05T21:00:47.364Z,24.02
2018-09-05T21:03:50.623Z,23.99
2018-09-05T21:06:53.969Z,23.87
2018-09-05T21:09:57.266Z,23.85
2018-09-05T21:13:00.893Z,23.83
2018-09-05T21:16:04.203Z,23.85
2018-09-05T21:19:07.559Z,23.80
2018-09-05T21:22:11.511Z,23.79
2018-09-05T21:25:14.778Z,23.78
2018-09-05T21:28:18.146Z,23.78
2018-09-05T21:31:21.495Z,23.75
2018-09-05T21:34:24.809Z,23.73
2018-09-05T21:37:28.084Z,23.70
2018-09-05T21:40:31.458Z,23.67
2018-09-05T21:43:34.755Z,23.57
2018-09-05T21:46:38.033Z,23.57
2018-09-05T21:49:42.405Z,23.55
2018-09-05T21:52:45.702Z,23.54
2018-09-05T21:55:48.971Z,23.53
2018-09-05T21:58:52.236Z,23.53
2018-09-05T22:01:55.398Z,23.55
2018-09-05T22:04:58.708Z,23.54
2018-09-05T22:08:01.958Z,23.47
2018-09-05T22:11:11.511Z,23.40
2018-09-05T22:14:14.773Z,23.41
2018-09-05T22:17:17.997Z,23.39
2018-09-05T22:20:21.273Z,23.40
2018-09-05T22:23:24.564Z,23.38
2018-09-05T22:26:27.779Z,23.36
2018-09-05T22:29:34.493Z,23.35
2018-09-05T22:32:37.756Z,23.34
2018-09-05T22:35:41.440Z,23.28
2018-09-05T22:38:44.776Z,23.27
2018-09-05T22:41:48.051Z,23.22
2018-09-05T22:45:02.680Z,23.20
2018-09-05T22:48:34.235Z,23.14
2018-09-05T22:53:22.651Z,23.08
2018-09-05T22:58:48.832Z,22.99
2018-09-05T23:02:23.503Z,22.96
2018-09-05T23:08:48.534Z,22.90
2018-09-05T23:12:03.044Z,22.82
2018-09-05T23:15:17.709Z,22.86
2018-09-05T23:18:42.864Z,22.81
2018-09-05T23:21:46.228Z,22.79
2018-09-05T23:24:49.489Z,22.79
2018-09-05T23:27:52.719Z,22.74
2018-09-05T23:30:56.026Z,22.72
2018-09-05T23:33:59.290Z,22.71
2018-09-05T23:37:02.590Z,22.68
2018-09-05T23:40:05.893Z,22.66
2018-09-05T23:43:09.191Z,22.66
2018-09-05T23:46:13.693Z,22.64
2018-09-05T23:49:16.916Z,22.56
2018-09-05T23:52:20.186Z,22.53
2018-09-05T23:55:23.480Z,22.44
2018-09-05T23:58:30.497Z,22.44
